Terminal Aerodrome Forecast
Issued by NWS Springfield, MO

Home | Current Version | Previous Version | Text Only | Print | Product List | Glossary On
Versions: 1 2 3 4 5 6 7 8 9 10 11 12 13 14 15 16 17 18 19 20 21 22 23 24 25 26 27 28 29 30 31 32 33 34
000
FTUS43 KSGF 170500
TAFSGF
TAF
KSGF 170520Z 1706/1806 16005KT P6SM BKN012
      TEMPO 1706/1708 5SM BR BKN006
     FM171000 17006KT 5SM BR SCT005 BKN008 OVC010
      TEMPO 1711/1715 3SM -TSRA SCT025 BKN040CB
     FM171500 19008KT P6SM VCTS BKN040CB BKN050
     FM171900 21008KT P6SM -SHRA SCT040 BKN060
     FM172300 15005KT P6SM BKN100=

USA.gov is the U.S. government's official web portal to all federal, state and local government web resources and services.